sensor_id;sensor_type;location;lat;lon;timestamp;P1;P2;P0
73631;PMS5003;61924;53.268;-2.458;2023-03-14T00:00:13;10;9;
73631;PMS5003;61924;53.268;-2.458;2023-03-14T00:02:38;8;8;
73631;PMS5003;61924;53.268;-2.458;2023-03-14T00:05:04;8;7;
73631;PMS5003;61924;53.268;-2.458;2023-03-14T00:07:29;7;7;
73631;PMS5003;61924;53.268;-2.458;2023-03-14T00:09:54;10;10;
73631;PMS5003;61924;53.268;-2.458;2023-03-14T00:12:20;7;6;
73631;PMS5003;61924;53.268;-2.458;2023-03-14T00:14:45;8;7;
73631;PMS5003;61924;53.268;-2.458;2023-03-14T00:17:11;8;7;
73631;PMS5003;61924;53.268;-2.458;2023-03-14T00:19:37;8;7;
73631;PMS5003;61924;53.268;-2.458;2023-03-14T00:22:02;10;8;
73631;PMS5003;61924;53.268;-2.458;2023-03-14T00:24:27;6;6;
73631;PMS5003;61924;53.268;-2.458;2023-03-14T00:26:52;9;7;
73631;PMS5003;61924;53.268;-2.458;2023-03-14T00:29:17;7;7;
73631;PMS5003;61924;53.268;-2.458;2023-03-14T00:31:42;10;8;
73631;PMS5003;61924;53.268;-2.458;2023-03-14T00:34:08;8;7;
73631;PMS5003;61924;53.268;-2.458;2023-03-14T00:36:34;6;6;
73631;PMS5003;61924;53.268;-2.458;2023-03-14T00:39:00;8;8;
73631;PMS5003;61924;53.268;-2.458;2023-03-14T00:41:25;6;5;
73631;PMS5003;61924;53.268;-2.458;2023-03-14T00:43:51;7;6;
73631;PMS5003;61924;53.268;-2.458;2023-03-14T00:46:17;3;3;
73631;PMS5003;61924;53.268;-2.458;2023-03-14T00:48:43;7;7;
73631;PMS5003;61924;53.268;-2.458;2023-03-14T00:51:08;7;6;
73631;PMS5003;61924;53.268;-2.458;2023-03-14T00:53:35;5;4;
73631;PMS5003;61924;53.268;-2.458;2023-03-14T00:55:59;4;4;
73631;PMS5003;61924;53.268;-2.458;2023-03-14T00:58:23;6;6;
73631;PMS5003;61924;53.268;-2.458;2023-03-14T01:00:49;4;4;
73631;PMS5003;61924;53.268;-2.458;2023-03-14T01:03:14;6;5;
73631;PMS5003;61924;53.268;-2.458;2023-03-14T01:05:40;5;5;
73631;PMS5003;61924;53.268;-2.458;2023-03-14T01:08:06;5;4;
73631;PMS5003;61924;53.268;-2.458;2023-03-14T01:10:31;4;4;
73631;PMS5003;61924;53.268;-2.458;2023-03-14T01:12:56;4;3;
73631;PMS5003;61924;53.268;-2.458;2023-03-14T01:15:22;6;6;
73631;PMS5003;61924;53.268;-2.458;2023-03-14T01:17:47;5;4;
73631;PMS5003;61924;53.268;-2.458;2023-03-14T01:20:13;3;2;
73631;PMS5003;61924;53.268;-2.458;2023-03-14T01:22:38;2;2;
73631;PMS5003;61924;53.268;-2.458;2023-03-14T01:25:03;3;3;
73631;PMS5003;61924;53.268;-2.458;2023-03-14T01:27:28;3;3;
73631;PMS5003;61924;53.268;-2.458;2023-03-14T01:29:53;6;4;
73631;PMS5003;61924;53.268;-2.458;2023-03-14T01:32:18;3;3;
73631;PMS5003;61924;53.268;-2.458;2023-03-14T01:34:43;2;2;
73631;PMS5003;61924;53.268;-2.458;2023-03-14T01:37:09;5;4;
73631;PMS5003;61924;53.268;-2.458;2023-03-14T01:39:35;2;2;
73631;PMS5003;61924;53.268;-2.458;2023-03-14T01:42:00;4;3;
73631;PMS5003;61924;53.268;-2.458;2023-03-14T01:44:25;3;2;
73631;PMS5003;61924;53.268;-2.458;2023-03-14T01:46:50;5;5;
73631;PMS5003;61924;53.268;-2.458;2023-03-14T01:49:18;8;7;
73631;PMS5003;61924;53.268;-2.458;2023-03-14T01:51:43;13;12;
73631;PMS5003;61924;53.268;-2.458;2023-03-14T01:54:08;21;21;
73631;PMS5003;61924;53.268;-2.458;2023-03-14T01:56:32;31;30;
73631;PMS5003;61924;53.268;-2.458;2023-03-14T01:58:58;47;46;
73631;PMS5003;61924;53.268;-2.458;2023-03-14T02:01:23;81;80;
73631;PMS5003;61924;53.268;-2.458;2023-03-14T02:03:50;100;99;
73631;PMS5003;61924;53.268;-2.458;2023-03-14T02:06:14;112;110;
73631;PMS5003;61924;53.268;-2.458;2023-03-14T02:08:39;115;114;
73631;PMS5003;61924;53.268;-2.458;2023-03-14T02:11:05;121;119;
73631;PMS5003;61924;53.268;-2.458;2023-03-14T02:13:30;130;128;
73631;PMS5003;61924;53.268;-2.458;2023-03-14T02:15:55;131;130;
73631;PMS5003;61924;53.268;-2.458;2023-03-14T02:18:20;146;146;
73631;PMS5003;61924;53.268;-2.458;2023-03-14T02:20:49;180;178;
73631;PMS5003;61924;53.268;-2.458;2023-03-14T02:23:12;180;178;
73631;PMS5003;61924;53.268;-2.458;2023-03-14T02:25:39;201;199;
73631;PMS5003;61924;53.268;-2.458;2023-03-14T02:28:02;208;205;
73631;PMS5003;61924;53.268;-2.458;2023-03-14T02:30:28;224;221;
73631;PMS5003;61924;53.268;-2.458;2023-03-14T02:32:54;232;232;
73631;PMS5003;61924;53.268;-2.458;2023-03-14T02:35:18;239;238;
73631;PMS5003;61924;53.268;-2.458;2023-03-14T02:37:44;243;239;
73631;PMS5003;61924;53.268;-2.458;2023-03-14T02:40:09;234;233;
73631;PMS5003;61924;53.268;-2.458;2023-03-14T02:42:33;241;235;
73631;PMS5003;61924;53.268;-2.458;2023-03-14T02:45:01;230;230;
73631;PMS5003;61924;53.268;-2.458;2023-03-14T02:47:27;227;223;
73631;PMS5003;61924;53.268;-2.458;2023-03-14T02:49:51;220;218;
73631;PMS5003;61924;53.268;-2.458;2023-03-14T02:52:15;210;209;
73631;PMS5003;61924;53.268;-2.458;2023-03-14T02:54:41;198;197;
73631;PMS5003;61924;53.268;-2.458;2023-03-14T02:57:06;212;207;
73631;PMS5003;61924;53.268;-2.458;2023-03-14T02:59:32;193;191;
73631;PMS5003;61924;53.268;-2.458;2023-03-14T03:01:59;189;188;
73631;PMS5003;61924;53.268;-2.458;2023-03-14T03:04:23;198;197;
73631;PMS5003;61924;53.268;-2.458;2023-03-14T03:06:48;174;172;
73631;PMS5003;61924;53.268;-2.458;2023-03-14T03:09:14;176;171;
73631;PMS5003;61924;53.268;-2.458;2023-03-14T03:11:39;173;172;
73631;PMS5003;61924;53.268;-2.458;2023-03-14T03:14:04;161;161;
73631;PMS5003;61924;53.268;-2.458;2023-03-14T03:16:30;157;157;
73631;PMS5003;61924;53.268;-2.458;2023-03-14T03:18:55;155;154;
73631;PMS5003;61924;53.268;-2.458;2023-03-14T03:21:21;151;149;
73631;PMS5003;61924;53.268;-2.458;2023-03-14T03:23:46;151;145;
73631;PMS5003;61924;53.268;-2.458;2023-03-14T03:26:11;141;141;
73631;PMS5003;61924;53.268;-2.458;2023-03-14T03:28:37;135;134;
73631;PMS5003;61924;53.268;-2.458;2023-03-14T03:31:06;133;133;
73631;PMS5003;61924;53.268;-2.458;2023-03-14T03:33:28;128;126;
73631;PMS5003;61924;53.268;-2.458;2023-03-14T03:35:54;127;125;
73631;PMS5003;61924;53.268;-2.458;2023-03-14T03:38:19;121;120;
73631;PMS5003;61924;53.268;-2.458;2023-03-14T03:40:44;119;118;
73631;PMS5003;61924;53.268;-2.458;2023-03-14T03:43:10;113;113;
73631;PMS5003;61924;53.268;-2.458;2023-03-14T03:45:36;108;108;
73631;PMS5003;61924;53.268;-2.458;2023-03-14T03:48:01;112;110;
73631;PMS5003;61924;53.268;-2.458;2023-03-14T03:50:26;110;107;
73631;PMS5003;61924;53.268;-2.458;2023-03-14T03:52:51;104;104;
73631;PMS5003;61924;53.268;-2.458;2023-03-14T03:55:17;99;98;
73631;PMS5003;61924;53.268;-2.458;2023-03-14T03:57:43;94;94;
73631;PMS5003;61924;53.268;-2.458;2023-03-14T04:00:09;92;91;
73631;PMS5003;61924;53.268;-2.458;2023-03-14T04:02:34;91;89;
73631;PMS5003;61924;53.268;-2.458;2023-03-14T04:04:59;87;86;
73631;PMS5003;61924;53.268;-2.458;2023-03-14T04:07:24;82;82;
73631;PMS5003;61924;53.268;-2.458;2023-03-14T04:09:50;83;81;
73631;PMS5003;61924;53.268;-2.458;2023-03-14T04:12:16;79;77;
73631;PMS5003;61924;53.268;-2.458;2023-03-14T04:14:41;76;76;
73631;PMS5003;61924;53.268;-2.458;2023-03-14T04:17:06;71;71;
73631;PMS5003;61924;53.268;-2.458;2023-03-14T04:19:32;76;74;
73631;PMS5003;61924;53.268;-2.458;2023-03-14T04:21:57;71;71;
73631;PMS5003;61924;53.268;-2.458;2023-03-14T04:24:23;67;66;
73631;PMS5003;61924;53.268;-2.458;2023-03-14T04:26:49;63;63;
73631;PMS5003;61924;53.268;-2.458;2023-03-14T04:29:14;64;64;
73631;PMS5003;61924;53.268;-2.458;2023-03-14T04:31:39;62;61;
73631;PMS5003;61924;53.268;-2.458;2023-03-14T04:34:05;61;60;
73631;PMS5003;61924;53.268;-2.458;2023-03-14T04:36:30;57;57;
73631;PMS5003;61924;53.268;-2.458;2023-03-14T04:38:56;57;56;
73631;PMS5003;61924;53.268;-2.458;2023-03-14T04:41:22;55;55;
73631;PMS5003;61924;53.268;-2.458;2023-03-14T04:43:48;58;57;
73631;PMS5003;61924;53.268;-2.458;2023-03-14T04:46:13;53;53;
73631;PMS5003;61924;53.268;-2.458;2023-03-14T04:48:39;52;52;
73631;PMS5003;61924;53.268;-2.458;2023-03-14T04:51:04;48;48;
73631;PMS5003;61924;53.268;-2.458;2023-03-14T04:53:29;46;46;
73631;PMS5003;61924;53.268;-2.458;2023-03-14T04:55:55;43;43;
73631;PMS5003;61924;53.268;-2.458;2023-03-14T04:58:21;41;41;
73631;PMS5003;61924;53.268;-2.458;2023-03-14T05:00:46;40;40;
73631;PMS5003;61924;53.268;-2.458;2023-03-14T05:03:12;40;40;
73631;PMS5003;61924;53.268;-2.458;2023-03-14T05:05:38;40;39;
73631;PMS5003;61924;53.268;-2.458;2023-03-14T05:08:03;42;41;
73631;PMS5003;61924;53.268;-2.458;2023-03-14T05:10:28;38;37;
73631;PMS5003;61924;53.268;-2.458;2023-03-14T05:12:54;34;34;
73631;PMS5003;61924;53.268;-2.458;2023-03-14T05:15:19;33;32;
73631;PMS5003;61924;53.268;-2.458;2023-03-14T05:17:45;33;33;
73631;PMS5003;61924;53.268;-2.458;2023-03-14T05:20:11;33;32;
73631;PMS5003;61924;53.268;-2.458;2023-03-14T05:22:36;33;33;
73631;PMS5003;61924;53.268;-2.458;2023-03-14T05:25:02;33;33;
73631;PMS5003;61924;53.268;-2.458;2023-03-14T05:27:27;31;30;
73631;PMS5003;61924;53.268;-2.458;2023-03-14T05:29:52;31;31;
73631;PMS5003;61924;53.268;-2.458;2023-03-14T05:32:17;28;28;
73631;PMS5003;61924;53.268;-2.458;2023-03-14T05:34:43;30;29;
73631;PMS5003;61924;53.268;-2.458;2023-03-14T05:37:08;27;26;
73631;PMS5003;61924;53.268;-2.458;2023-03-14T05:39:34;27;26;
73631;PMS5003;61924;53.268;-2.458;2023-03-14T05:42:00;28;28;
73631;PMS5003;61924;53.268;-2.458;2023-03-14T05:44:25;24;24;
73631;PMS5003;61924;53.268;-2.458;2023-03-14T05:46:50;24;24;
73631;PMS5003;61924;53.268;-2.458;2023-03-14T05:49:15;25;25;
73631;PMS5003;61924;53.268;-2.458;2023-03-14T05:51:41;23;23;
73631;PMS5003;61924;53.268;-2.458;2023-03-14T05:54:06;23;21;
73631;PMS5003;61924;53.268;-2.458;2023-03-14T05:56:32;21;21;
73631;PMS5003;61924;53.268;-2.458;2023-03-14T05:58:57;21;21;
73631;PMS5003;61924;53.268;-2.458;2023-03-14T06:01:22;23;23;
73631;PMS5003;61924;53.268;-2.458;2023-03-14T06:03:48;23;23;
73631;PMS5003;61924;53.268;-2.458;2023-03-14T06:06:14;22;22;
73631;PMS5003;61924;53.268;-2.458;2023-03-14T06:08:39;20;19;
73631;PMS5003;61924;53.268;-2.458;2023-03-14T06:11:05;19;19;
73631;PMS5003;61924;53.268;-2.458;2023-03-14T06:13:30;20;19;
73631;PMS5003;61924;53.268;-2.458;2023-03-14T06:15:55;15;15;
73631;PMS5003;61924;53.268;-2.458;2023-03-14T06:18:21;20;18;
73631;PMS5003;61924;53.268;-2.458;2023-03-14T06:20:47;19;18;
73631;PMS5003;61924;53.268;-2.458;2023-03-14T06:23:13;17;16;
73631;PMS5003;61924;53.268;-2.458;2023-03-14T06:25:39;18;18;
73631;PMS5003;61924;53.268;-2.458;2023-03-14T06:28:04;19;18;
73631;PMS5003;61924;53.268;-2.458;2023-03-14T06:30:30;16;16;
73631;PMS5003;61924;53.268;-2.458;2023-03-14T06:32:55;19;18;
73631;PMS5003;61924;53.268;-2.458;2023-03-14T06:35:21;15;15;
73631;PMS5003;61924;53.268;-2.458;2023-03-14T06:37:46;16;15;
73631;PMS5003;61924;53.268;-2.458;2023-03-14T06:40:12;16;15;
73631;PMS5003;61924;53.268;-2.458;2023-03-14T06:42:37;14;14;
73631;PMS5003;61924;53.268;-2.458;2023-03-14T06:45:03;13;13;
73631;PMS5003;61924;53.268;-2.458;2023-03-14T06:47:28;14;14;
73631;PMS5003;61924;53.268;-2.458;2023-03-14T06:49:54;14;13;
73631;PMS5003;61924;53.268;-2.458;2023-03-14T06:52:19;13;13;
73631;PMS5003;61924;53.268;-2.458;2023-03-14T06:54:44;14;14;
73631;PMS5003;61924;53.268;-2.458;2023-03-14T06:57:10;15;14;
73631;PMS5003;61924;53.268;-2.458;2023-03-14T06:59:35;15;14;
73631;PMS5003;61924;53.268;-2.458;2023-03-14T07:02:01;11;11;
73631;PMS5003;61924;53.268;-2.458;2023-03-14T07:04:26;11;11;
73631;PMS5003;61924;53.268;-2.458;2023-03-14T07:06:52;11;11;
73631;PMS5003;61924;53.268;-2.458;2023-03-14T07:09:17;12;11;
73631;PMS5003;61924;53.268;-2.458;2023-03-14T07:11:43;11;11;
73631;PMS5003;61924;53.268;-2.458;2023-03-14T07:14:08;10;10;
73631;PMS5003;61924;53.268;-2.458;2023-03-14T07:16:33;13;13;
73631;PMS5003;61924;53.268;-2.458;2023-03-14T07:18:59;11;11;
73631;PMS5003;61924;53.268;-2.458;2023-03-14T07:21:25;9;9;
73631;PMS5003;61924;53.268;-2.458;2023-03-14T07:23:50;9;9;
73631;PMS5003;61924;53.268;-2.458;2023-03-14T07:26:15;11;10;
73631;PMS5003;61924;53.268;-2.458;2023-03-14T07:28:41;8;8;
73631;PMS5003;61924;53.268;-2.458;2023-03-14T07:31:06;10;10;
73631;PMS5003;61924;53.268;-2.458;2023-03-14T07:33:31;12;12;
73631;PMS5003;61924;53.268;-2.458;2023-03-14T07:35:56;10;10;
73631;PMS5003;61924;53.268;-2.458;2023-03-14T07:38:22;9;9;
73631;PMS5003;61924;53.268;-2.458;2023-03-14T07:40:47;9;8;
73631;PMS5003;61924;53.268;-2.458;2023-03-14T07:43:13;8;8;
73631;PMS5003;61924;53.268;-2.458;2023-03-14T07:45:38;6;6;
73631;PMS5003;61924;53.268;-2.458;2023-03-14T07:48:04;8;8;
73631;PMS5003;61924;53.268;-2.458;2023-03-14T07:50:30;7;7;
73631;PMS5003;61924;53.268;-2.458;2023-03-14T07:52:55;8;8;
73631;PMS5003;61924;53.268;-2.458;2023-03-14T07:55:21;9;9;
73631;PMS5003;61924;53.268;-2.458;2023-03-14T07:57:46;9;9;
73631;PMS5003;61924;53.268;-2.458;2023-03-14T08:00:13;8;8;
73631;PMS5003;61924;53.268;-2.458;2023-03-14T08:02:37;9;8;
73631;PMS5003;61924;53.268;-2.458;2023-03-14T08:05:02;7;7;
73631;PMS5003;61924;53.268;-2.458;2023-03-14T08:07:28;9;9;
73631;PMS5003;61924;53.268;-2.458;2023-03-14T08:09:54;8;7;
73631;PMS5003;61924;53.268;-2.458;2023-03-14T08:12:19;7;7;
73631;PMS5003;61924;53.268;-2.458;2023-03-14T08:14:45;10;8;
73631;PMS5003;61924;53.268;-2.458;2023-03-14T08:17:11;9;8;
73631;PMS5003;61924;53.268;-2.458;2023-03-14T08:19:36;8;8;
73631;PMS5003;61924;53.268;-2.458;2023-03-14T08:22:01;8;8;
73631;PMS5003;61924;53.268;-2.458;2023-03-14T08:24:26;7;7;
73631;PMS5003;61924;53.268;-2.458;2023-03-14T08:26:52;7;7;
73631;PMS5003;61924;53.268;-2.458;2023-03-14T08:29:17;8;8;
73631;PMS5003;61924;53.268;-2.458;2023-03-14T08:31:43;8;8;
73631;PMS5003;61924;53.268;-2.458;2023-03-14T08:34:08;7;6;
73631;PMS5003;61924;53.268;-2.458;2023-03-14T08:36:34;9;9;
73631;PMS5003;61924;53.268;-2.458;2023-03-14T08:39:00;6;6;
73631;PMS5003;61924;53.268;-2.458;2023-03-14T08:41:25;7;7;
73631;PMS5003;61924;53.268;-2.458;2023-03-14T08:43:51;7;7;
73631;PMS5003;61924;53.268;-2.458;2023-03-14T08:46:16;8;7;
73631;PMS5003;61924;53.268;-2.458;2023-03-14T08:48:41;7;7;
73631;PMS5003;61924;53.268;-2.458;2023-03-14T08:51:07;7;6;
73631;PMS5003;61924;53.268;-2.458;2023-03-14T08:53:32;6;6;
73631;PMS5003;61924;53.268;-2.458;2023-03-14T08:55:57;8;8;
73631;PMS5003;61924;53.268;-2.458;2023-03-14T08:58:23;6;6;
73631;PMS5003;61924;53.268;-2.458;2023-03-14T09:00:48;6;5;
73631;PMS5003;61924;53.268;-2.458;2023-03-14T09:03:14;5;4;
73631;PMS5003;61924;53.268;-2.458;2023-03-14T09:05:39;6;6;
73631;PMS5003;61924;53.268;-2.458;2023-03-14T09:08:05;6;6;
73631;PMS5003;61924;53.268;-2.458;2023-03-14T09:10:30;6;6;
73631;PMS5003;61924;53.268;-2.458;2023-03-14T09:12:56;6;6;
73631;PMS5003;61924;53.268;-2.458;2023-03-14T09:15:21;5;5;
73631;PMS5003;61924;53.268;-2.458;2023-03-14T09:17:47;7;7;
73631;PMS5003;61924;53.268;-2.458;2023-03-14T09:20:12;5;5;
73631;PMS5003;61924;53.268;-2.458;2023-03-14T09:22:38;7;7;
73631;PMS5003;61924;53.268;-2.458;2023-03-14T09:25:03;8;8;
73631;PMS5003;61924;53.268;-2.458;2023-03-14T09:27:28;4;4;
73631;PMS5003;61924;53.268;-2.458;2023-03-14T09:29:54;5;5;
73631;PMS5003;61924;53.268;-2.458;2023-03-14T09:32:20;6;5;
73631;PMS5003;61924;53.268;-2.458;2023-03-14T09:34:45;7;7;
73631;PMS5003;61924;53.268;-2.458;2023-03-14T09:37:11;5;5;
73631;PMS5003;61924;53.268;-2.458;2023-03-14T09:39:37;5;5;
73631;PMS5003;61924;53.268;-2.458;2023-03-14T09:42:02;5;5;
73631;PMS5003;61924;53.268;-2.458;2023-03-14T09:44:28;5;5;
73631;PMS5003;61924;53.268;-2.458;2023-03-14T09:46:53;5;4;
73631;PMS5003;61924;53.268;-2.458;2023-03-14T09:49:19;5;5;
73631;PMS5003;61924;53.268;-2.458;2023-03-14T09:51:43;7;6;
73631;PMS5003;61924;53.268;-2.458;2023-03-14T09:54:08;5;5;
73631;PMS5003;61924;53.268;-2.458;2023-03-14T09:56:33;4;4;
73631;PMS5003;61924;53.268;-2.458;2023-03-14T09:59:00;4;4;
73631;PMS5003;61924;53.268;-2.458;2023-03-14T10:01:26;5;5;
73631;PMS5003;61924;53.268;-2.458;2023-03-14T10:03:50;4;4;
73631;PMS5003;61924;53.268;-2.458;2023-03-14T10:06:16;5;4;
73631;PMS5003;61924;53.268;-2.458;2023-03-14T10:08:41;4;4;
73631;PMS5003;61924;53.268;-2.458;2023-03-14T10:11:09;4;4;
73631;PMS5003;61924;53.268;-2.458;2023-03-14T10:13:32;6;5;
73631;PMS5003;61924;53.268;-2.458;2023-03-14T10:15:59;5;4;
73631;PMS5003;61924;53.268;-2.458;2023-03-14T10:18:22;4;4;
73631;PMS5003;61924;53.268;-2.458;2023-03-14T10:20:48;3;3;
73631;PMS5003;61924;53.268;-2.458;2023-03-14T10:23:20;3;3;
73631;PMS5003;61924;53.268;-2.458;2023-03-14T10:25:39;5;5;
73631;PMS5003;61924;53.268;-2.458;2023-03-14T10:28:04;4;4;
73631;PMS5003;61924;53.268;-2.458;2023-03-14T10:30:30;4;3;
73631;PMS5003;61924;53.268;-2.458;2023-03-14T10:32:55;4;4;
73631;PMS5003;61924;53.268;-2.458;2023-03-14T10:35:21;4;4;
73631;PMS5003;61924;53.268;-2.458;2023-03-14T10:37:50;3;3;
73631;PMS5003;61924;53.268;-2.458;2023-03-14T10:40:12;3;3;
73631;PMS5003;61924;53.268;-2.458;2023-03-14T10:42:39;3;3;
73631;PMS5003;61924;53.268;-2.458;2023-03-14T10:45:02;3;3;
73631;PMS5003;61924;53.268;-2.458;2023-03-14T10:47:27;4;3;
73631;PMS5003;61924;53.268;-2.458;2023-03-14T10:49:52;3;3;
73631;PMS5003;61924;53.268;-2.458;2023-03-14T10:52:19;4;3;
73631;PMS5003;61924;53.268;-2.458;2023-03-14T10:54:46;3;3;
73631;PMS5003;61924;53.268;-2.458;2023-03-14T10:57:10;3;3;
73631;PMS5003;61924;53.268;-2.458;2023-03-14T10:59:36;4;4;
73631;PMS5003;61924;53.268;-2.458;2023-03-14T11:01:59;2;2;
73631;PMS5003;61924;53.268;-2.458;2023-03-14T11:04:29;4;4;
73631;PMS5003;61924;53.268;-2.458;2023-03-14T11:06:50;2;2;
73631;PMS5003;61924;53.268;-2.458;2023-03-14T11:09:15;2;2;
73631;PMS5003;61924;53.268;-2.458;2023-03-14T11:11:40;3;3;
73631;PMS5003;61924;53.268;-2.458;2023-03-14T11:14:08;3;3;
73631;PMS5003;61924;53.268;-2.458;2023-03-14T11:16:33;1;1;
73631;PMS5003;61924;53.268;-2.458;2023-03-14T11:19:00;2;2;
73631;PMS5003;61924;53.268;-2.458;2023-03-14T11:21:24;4;3;
73631;PMS5003;61924;53.268;-2.458;2023-03-14T11:23:50;2;2;
73631;PMS5003;61924;53.268;-2.458;2023-03-14T11:26:18;3;3;
73631;PMS5003;61924;53.268;-2.458;2023-03-14T11:28:40;1;1;
73631;PMS5003;61924;53.268;-2.458;2023-03-14T11:31:07;4;4;
73631;PMS5003;61924;53.268;-2.458;2023-03-14T11:33:32;2;2;
73631;PMS5003;61924;53.268;-2.458;2023-03-14T11:35:58;2;2;
73631;PMS5003;61924;53.268;-2.458;2023-03-14T11:38:25;2;2;
73631;PMS5003;61924;53.268;-2.458;2023-03-14T11:40:47;2;2;
73631;PMS5003;61924;53.268;-2.458;2023-03-14T11:43:13;1;1;
73631;PMS5003;61924;53.268;-2.458;2023-03-14T11:45:41;2;2;
73631;PMS5003;61924;53.268;-2.458;2023-03-14T11:48:07;2;2;
73631;PMS5003;61924;53.268;-2.458;2023-03-14T11:50:29;1;1;
73631;PMS5003;61924;53.268;-2.458;2023-03-14T11:52:55;2;2;
73631;PMS5003;61924;53.268;-2.458;2023-03-14T11:55:22;2;2;
73631;PMS5003;61924;53.268;-2.458;2023-03-14T11:57:46;2;2;
73631;PMS5003;61924;53.268;-2.458;2023-03-14T12:00:14;2;2;
73631;PMS5003;61924;53.268;-2.458;2023-03-14T12:02:39;2;2;
73631;PMS5003;61924;53.268;-2.458;2023-03-14T12:05:18;2;2;
73631;PMS5003;61924;53.268;-2.458;2023-03-14T12:07:29;2;2;
73631;PMS5003;61924;53.268;-2.458;2023-03-14T12:09:53;1;1;
73631;PMS5003;61924;53.268;-2.458;2023-03-14T12:12:20;2;2;
73631;PMS5003;61924;53.268;-2.458;2023-03-14T12:14:45;1;1;
73631;PMS5003;61924;53.268;-2.458;2023-03-14T12:17:17;1;1;
73631;PMS5003;61924;53.268;-2.458;2023-03-14T12:19:36;1;1;
73631;PMS5003;61924;53.268;-2.458;2023-03-14T12:22:01;1;1;
73631;PMS5003;61924;53.268;-2.458;2023-03-14T12:24:27;2;2;
73631;PMS5003;61924;53.268;-2.458;2023-03-14T12:26:52;1;1;
73631;PMS5003;61924;53.268;-2.458;2023-03-14T12:29:17;1;1;
73631;PMS5003;61924;53.268;-2.458;2023-03-14T12:31:43;1;1;
73631;PMS5003;61924;53.268;-2.458;2023-03-14T12:34:40;1;1;
73631;PMS5003;61924;53.268;-2.458;2023-03-14T12:37:10;1;1;
73631;PMS5003;61924;53.268;-2.458;2023-03-14T12:39:01;2;2;
73631;PMS5003;61924;53.268;-2.458;2023-03-14T12:41:25;0;0;
73631;PMS5003;61924;53.268;-2.458;2023-03-14T12:43:50;1;1;
73631;PMS5003;61924;53.268;-2.458;2023-03-14T12:46:19;2;2;
73631;PMS5003;61924;53.268;-2.458;2023-03-14T12:48:41;2;2;
73631;PMS5003;61924;53.268;-2.458;2023-03-14T12:51:12;1;1;
73631;PMS5003;61924;53.268;-2.458;2023-03-14T12:54:37;0;0;
73631;PMS5003;61924;53.268;-2.458;2023-03-14T12:55:57;1;1;
73631;PMS5003;61924;53.268;-2.458;2023-03-14T12:58:23;0;0;
73631;PMS5003;61924;53.268;-2.458;2023-03-14T13:00:51;1;1;
73631;PMS5003;61924;53.268;-2.458;2023-03-14T13:03:17;2;1;
73631;PMS5003;61924;53.268;-2.458;2023-03-14T13:05:51;0;0;
73631;PMS5003;61924;53.268;-2.458;2023-03-14T13:08:05;0;0;
73631;PMS5003;61924;53.268;-2.458;2023-03-14T13:10:29;1;1;
73631;PMS5003;61924;53.268;-2.458;2023-03-14T13:12:55;1;1;
73631;PMS5003;61924;53.268;-2.458;2023-03-14T13:15:22;1;1;
73631;PMS5003;61924;53.268;-2.458;2023-03-14T13:17:46;1;1;
73631;PMS5003;61924;53.268;-2.458;2023-03-14T13:20:11;1;1;
73631;PMS5003;61924;53.268;-2.458;2023-03-14T13:22:36;1;1;
73631;PMS5003;61924;53.268;-2.458;2023-03-14T13:25:01;1;1;
73631;PMS5003;61924;53.268;-2.458;2023-03-14T13:27:26;0;0;
73631;PMS5003;61924;53.268;-2.458;2023-03-14T13:29:51;1;1;
73631;PMS5003;61924;53.268;-2.458;2023-03-14T13:32:17;1;1;
73631;PMS5003;61924;53.268;-2.458;2023-03-14T13:34:42;2;1;
73631;PMS5003;61924;53.268;-2.458;2023-03-14T13:37:13;1;1;
73631;PMS5003;61924;53.268;-2.458;2023-03-14T13:39:32;0;0;
73631;PMS5003;61924;53.268;-2.458;2023-03-14T13:41:58;1;1;
73631;PMS5003;61924;53.268;-2.458;2023-03-14T13:44:24;2;1;
73631;PMS5003;61924;53.268;-2.458;2023-03-14T13:46:48;0;0;
73631;PMS5003;61924;53.268;-2.458;2023-03-14T13:49:16;0;0;
73631;PMS5003;61924;53.268;-2.458;2023-03-14T13:51:39;1;1;
73631;PMS5003;61924;53.268;-2.458;2023-03-14T13:54:11;0;0;
73631;PMS5003;61924;53.268;-2.458;2023-03-14T13:56:31;1;1;
73631;PMS5003;61924;53.268;-2.458;2023-03-14T13:58:55;1;1;
73631;PMS5003;61924;53.268;-2.458;2023-03-14T14:01:21;0;0;
73631;PMS5003;61924;53.268;-2.458;2023-03-14T14:03:46;0;0;
73631;PMS5003;61924;53.268;-2.458;2023-03-14T14:06:16;0;0;
73631;PMS5003;61924;53.268;-2.458;2023-03-14T14:08:39;0;0;
73631;PMS5003;61924;53.268;-2.458;2023-03-14T14:11:01;0;0;
73631;PMS5003;61924;53.268;-2.458;2023-03-14T14:13:27;0;0;
73631;PMS5003;61924;53.268;-2.458;2023-03-14T14:15:52;0;0;
73631;PMS5003;61924;53.268;-2.458;2023-03-14T14:18:18;0;0;
73631;PMS5003;61924;53.268;-2.458;2023-03-14T14:20:44;0;0;
73631;PMS5003;61924;53.268;-2.458;2023-03-14T14:23:09;1;1;
73631;PMS5003;61924;53.268;-2.458;2023-03-14T14:25:35;1;1;
73631;PMS5003;61924;53.268;-2.458;2023-03-14T14:28:13;0;0;
73631;PMS5003;61924;53.268;-2.458;2023-03-14T14:30:28;2;1;
73631;PMS5003;61924;53.268;-2.458;2023-03-14T14:32:51;0;0;
73631;PMS5003;61924;53.268;-2.458;2023-03-14T14:35:21;2;2;
73631;PMS5003;61924;53.268;-2.458;2023-03-14T14:37:43;0;0;
73631;PMS5003;61924;53.268;-2.458;2023-03-14T14:40:08;0;0;
73631;PMS5003;61924;53.268;-2.458;2023-03-14T14:42:33;0;0;
73631;PMS5003;61924;53.268;-2.458;2023-03-14T14:44:59;1;0;
73631;PMS5003;61924;53.268;-2.458;2023-03-14T14:47:25;1;1;
73631;PMS5003;61924;53.268;-2.458;2023-03-14T14:49:51;0;0;
73631;PMS5003;61924;53.268;-2.458;2023-03-14T14:52:16;0;0;
73631;PMS5003;61924;53.268;-2.458;2023-03-14T14:54:44;0;0;
73631;PMS5003;61924;53.268;-2.458;2023-03-14T14:57:13;0;0;
73631;PMS5003;61924;53.268;-2.458;2023-03-14T14:59:32;0;0;
73631;PMS5003;61924;53.268;-2.458;2023-03-14T15:01:58;0;0;
73631;PMS5003;61924;53.268;-2.458;2023-03-14T15:04:23;0;0;
73631;PMS5003;61924;53.268;-2.458;2023-03-14T15:06:49;0;0;
73631;PMS5003;61924;53.268;-2.458;2023-03-14T15:09:14;0;0;
73631;PMS5003;61924;53.268;-2.458;2023-03-14T15:11:41;1;1;
73631;PMS5003;61924;53.268;-2.458;2023-03-14T15:14:05;0;0;
73631;PMS5003;61924;53.268;-2.458;2023-03-14T15:16:31;0;0;
73631;PMS5003;61924;53.268;-2.458;2023-03-14T15:18:58;0;0;
73631;PMS5003;61924;53.268;-2.458;2023-03-14T15:21:22;0;0;
73631;PMS5003;61924;53.268;-2.458;2023-03-14T15:23:48;0;0;
73631;PMS5003;61924;53.268;-2.458;2023-03-14T15:26:15;0;0;
73631;PMS5003;61924;53.268;-2.458;2023-03-14T15:28:39;0;0;
73631;PMS5003;61924;53.268;-2.458;2023-03-14T15:31:04;0;0;
73631;PMS5003;61924;53.268;-2.458;2023-03-14T15:33:29;0;0;
73631;PMS5003;61924;53.268;-2.458;2023-03-14T15:35:55;0;0;
73631;PMS5003;61924;53.268;-2.458;2023-03-14T15:38:21;0;0;
73631;PMS5003;61924;53.268;-2.458;2023-03-14T15:40:45;0;0;
73631;PMS5003;61924;53.268;-2.458;2023-03-14T15:43:11;0;0;
73631;PMS5003;61924;53.268;-2.458;2023-03-14T15:45:36;0;0;
73631;PMS5003;61924;53.268;-2.458;2023-03-14T15:48:01;0;0;
73631;PMS5003;61924;53.268;-2.458;2023-03-14T15:50:27;0;0;
73631;PMS5003;61924;53.268;-2.458;2023-03-14T15:52:52;2;1;
73631;PMS5003;61924;53.268;-2.458;2023-03-14T15:55:17;0;0;
73631;PMS5003;61924;53.268;-2.458;2023-03-14T15:57:43;0;0;
73631;PMS5003;61924;53.268;-2.458;2023-03-14T16:00:10;0;0;
73631;PMS5003;61924;53.268;-2.458;2023-03-14T16:02:34;0;0;
73631;PMS5003;61924;53.268;-2.458;2023-03-14T16:05:00;0;0;